createdAt,value
2022-09-23T00:01:14.700Z,85.30
2022-09-23T00:03:45.347Z,85.73
2022-09-23T00:06:14.935Z,85.52
2022-09-23T00:08:41.733Z,85.46
2022-09-23T00:11:10.941Z,85.48
2022-09-23T00:13:39.390Z,85.70
2022-09-23T00:16:08.018Z,85.70
2022-09-23T00:18:34.775Z,85.45
2022-09-23T00:21:05.686Z,85.59
2022-09-23T00:23:32.861Z,85.81
2022-09-23T00:26:01.854Z,86.20
2022-09-23T00:28:28.910Z,86.21
2022-09-23T00:30:55.415Z,86.09
2022-09-23T00:33:22.158Z,86.09
2022-09-23T00:35:49.847Z,86.14
2022-09-23T00:38:16.317Z,85.85
2022-09-23T00:40:46.123Z,85.60
2022-09-23T00:43:14.954Z,85.95
2022-09-23T00:45:50.545Z,85.86
2022-09-23T00:48:20.942Z,85.88
2022-09-23T00:50:53.485Z,86.17
2022-09-23T00:53:26.630Z,85.74
2022-09-23T00:55:59.286Z,85.91
2022-09-23T00:58:31.243Z,86.21
2022-09-23T01:01:00.487Z,86.43
2022-09-23T01:03:27.989Z,86.59
2022-09-23T01:05:55.328Z,86.67
2022-09-23T01:08:23.550Z,86.69
2022-09-23T01:11:15.066Z,86.61
2022-09-23T01:14:05.587Z,86.78
2022-09-23T01:16:54.132Z,86.92
2022-09-23T01:19:43.563Z,87.24
2022-09-23T01:22:22.092Z,87.05
2022-09-23T01:24:48.722Z,87.07
2022-09-23T01:27:34.920Z,87.15
2022-09-23T01:30:31.939Z,87.22
2022-09-23T01:33:31.099Z,86.91
2022-09-23T01:36:00.690Z,86.92
2022-09-23T01:38:37.061Z,86.60
2022-09-23T01:41:09.883Z,86.62
2022-09-23T01:44:08.868Z,86.50
2022-09-23T01:46:48.277Z,86.36
2022-09-23T01:49:34.391Z,86.75
2022-09-23T01:52:25.710Z,86.93
2022-09-23T01:54:59.922Z,87.10
2022-09-23T01:57:32.259Z,86.66
2022-09-23T02:00:15.185Z,86.85
2022-09-23T02:02:57.645Z,86.53
2022-09-23T02:05:34.286Z,86.25
2022-09-23T02:08:10.934Z,86.66
2022-09-23T02:10:44.707Z,86.43
2022-09-23T02:13:24.189Z,86.20
2022-09-23T02:15:55.701Z,86.59
2022-09-23T02:18:27.030Z,86.39
2022-09-23T02:20:59.296Z,86.38
2022-09-23T02:23:50.494Z,86.68
2022-09-23T02:26:30.475Z,86.51
2022-09-23T02:29:08.053Z,86.85
2022-09-23T02:31:56.509Z,87.29
2022-09-23T02:34:47.836Z,87.28
2022-09-23T02:37:37.186Z,87.66
2022-09-23T02:40:09.561Z,87.12
2022-09-23T02:43:03.955Z,86.75
2022-09-23T02:45:31.177Z,86.47
2022-09-23T02:48:04.465Z,86.42
2022-09-23T02:50:33.243Z,86.67
2022-09-23T02:53:00.983Z,86.43
2022-09-23T02:55:33.334Z,86.23
2022-09-23T02:58:01.611Z,86.26
2022-09-23T03:00:38.269Z,86.02
2022-09-23T03:03:57.108Z,86.29
2022-09-23T03:06:39.453Z,86.35
2022-09-23T03:09:14.151Z,85.95
2022-09-23T03:11:48.870Z,86.09
2022-09-23T03:14:29.553Z,86.35
2022-09-23T03:17:17.287Z,86.48
2022-09-23T03:19:58.046Z,86.65
2022-09-23T03:22:40.462Z,87.26
2022-09-23T03:25:11.503Z,87.26
2022-09-23T03:27:42.542Z,87.14
2022-09-23T03:30:10.445Z,87.08
2022-09-23T03:32:38.405Z,87.30
2022-09-23T03:35:06.090Z,87.44
2022-09-23T03:37:49.383Z,87.13
2022-09-23T03:40:30.044Z,87.44
2022-09-23T03:42:58.708Z,87.06
2022-09-23T03:45:30.262Z,87.13
2022-09-23T03:47:56.999Z,87.39
2022-09-23T03:50:24.361Z,87.22
2022-09-23T03:52:51.136Z,87.40
2022-09-23T03:55:19.312Z,87.36
2022-09-23T03:57:46.384Z,87.18
2022-09-23T04:00:14.596Z,87.53
2022-09-23T04:02:41.467Z,87.49
2022-09-23T04:05:09.437Z,87.48
2022-09-23T04:07:35.989Z,87.77
2022-09-23T04:10:02.611Z,87.71
2022-09-23T04:12:29.088Z,87.56
2022-09-23T04:14:55.781Z,87.85
2022-09-23T04:17:22.241Z,87.50
2022-09-23T04:19:48.694Z,87.52
2022-09-23T04:22:15.339Z,87.61
2022-09-23T04:24:41.838Z,87.85
2022-09-23T04:27:08.410Z,87.59
2022-09-23T04:29:35.118Z,87.84
2022-09-23T04:32:01.811Z,87.56
2022-09-23T04:34:28.338Z,87.57
2022-09-23T04:36:55.086Z,87.84
2022-09-23T04:39:21.607Z,87.89
2022-09-23T04:41:48.111Z,88.11
2022-09-23T04:44:15.320Z,88.39
2022-09-23T04:46:43.875Z,88.60
2022-09-23T04:49:10.726Z,88.13
2022-09-23T04:51:37.281Z,87.92
2022-09-23T04:54:03.901Z,88.23
2022-09-23T04:56:34.049Z,88.16
2022-09-23T04:59:01.928Z,88.21
2022-09-23T05:01:34.489Z,88.06
2022-09-23T05:04:05.189Z,88.14
2022-09-23T05:06:34.531Z,88.17
2022-09-23T05:09:02.118Z,88.46
2022-09-23T05:11:31.470Z,87.99
2022-09-23T05:13:58.317Z,88.14
2022-09-23T05:16:26.157Z,88.03
2022-09-23T05:18:53.470Z,87.90
2022-09-23T05:21:24.509Z,88.27
2022-09-23T05:23:56.610Z,88.22
2022-09-23T05:26:25.472Z,88.26
2022-09-23T05:28:53.635Z,88.17
2022-09-23T05:31:23.203Z,88.38
2022-09-23T05:33:52.233Z,88.48
2022-09-23T05:36:20.626Z,88.52
2022-09-23T05:38:49.207Z,88.69
2022-09-23T05:41:17.245Z,88.44
2022-09-23T05:43:44.071Z,88.29
2022-09-23T05:46:16.106Z,88.28
2022-09-23T05:48:45.549Z,88.61
2022-09-23T05:51:25.456Z,88.57
2022-09-23T05:53:55.825Z,88.37
2022-09-23T05:56:24.198Z,88.39
2022-09-23T05:58:52.483Z,88.19
2022-09-23T06:01:21.423Z,88.07
2022-09-23T06:03:49.190Z,87.83
2022-09-23T06:06:20.377Z,88.21
2022-09-23T06:08:48.028Z,88.32
2022-09-23T06:11:15.034Z,88.32
2022-09-23T06:13:41.762Z,88.14
2022-09-23T06:16:13.806Z,87.89
2022-09-23T06:18:45.169Z,87.83
2022-09-23T06:21:17.282Z,87.64
2022-09-23T06:23:45.046Z,87.50
2022-09-23T06:26:16.254Z,87.25
2022-09-23T06:28:44.901Z,87.26
2022-09-23T06:31:16.587Z,87.06
2022-09-23T06:33:45.066Z,86.90
2022-09-23T06:36:16.111Z,86.84
2022-09-23T06:38:51.133Z,86.75
2022-09-23T06:41:18.058Z,86.83
2022-09-23T06:43:44.536Z,86.66
2022-09-23T06:46:15.785Z,86.30
2022-09-23T06:48:46.421Z,86.59
2022-09-23T06:51:21.715Z,86.48
2022-09-23T06:53:49.353Z,86.57
2022-09-23T06:56:17.833Z,86.80
2022-09-23T06:58:44.353Z,86.74
2022-09-23T07:01:13.362Z,86.99
2022-09-23T07:03:40.099Z,86.91
2022-09-23T07:06:07.337Z,87.09
2022-09-23T07:08:35.362Z,86.67
2022-09-23T07:11:04.778Z,86.51
2022-09-23T07:13:33.368Z,86.52
2022-09-23T07:16:02.037Z,86.33
2022-09-23T07:18:36.784Z,86.36
2022-09-23T07:21:29.706Z,87.94
2022-09-23T07:23:58.425Z,90.58
2022-09-23T07:26:25.442Z,91.65
2022-09-23T07:28:56.604Z,92.08
2022-09-23T07:31:37.952Z,92.90
2022-09-23T07:34:10.187Z,91.86
2022-09-23T07:36:40.725Z,92.01
2022-09-23T07:39:12.353Z,92.45
2022-09-23T07:41:39.657Z,92.10
2022-09-23T07:44:06.501Z,91.67
2022-09-23T07:46:36.034Z,91.24
2022-09-23T07:49:03.575Z,91.10
2022-09-23T07:51:36.274Z,90.40
2022-09-23T07:54:07.717Z,90.34
2022-09-23T07:56:35.893Z,89.78
2022-09-23T07:59:05.476Z,90.02
2022-09-23T08:01:38.016Z,89.63
2022-09-23T08:04:12.212Z,89.16
2022-09-23T08:06:43.420Z,88.07
2022-09-23T08:09:11.014Z,87.25
2022-09-23T08:11:41.714Z,87.58
2022-09-23T08:14:15.461Z,87.20
2022-09-23T08:16:42.768Z,90.22
2022-09-23T08:19:09.489Z,87.92
2022-09-23T08:21:39.423Z,86.00
2022-09-23T08:24:08.181Z,85.35
2022-09-23T08:26:35.333Z,85.50
2022-09-23T08:29:02.179Z,85.14
2022-09-23T08:31:28.684Z,83.87
2022-09-23T08:33:56.475Z,83.75
2022-09-23T08:36:23.846Z,82.92
2022-09-23T08:38:50.677Z,82.14
2022-09-23T08:41:33.872Z,82.59
2022-09-23T08:44:12.150Z,81.56
2022-09-23T08:46:47.026Z,81.25
2022-09-23T08:49:22.063Z,82.23
2022-09-23T08:51:51.292Z,80.97
2022-09-23T08:54:18.350Z,79.95
2022-09-23T08:56:49.157Z,78.89
2022-09-23T08:59:41.700Z,77.33
2022-09-23T09:02:22.873Z,78.04
2022-09-23T09:05:03.313Z,76.81
2022-09-23T09:07:37.289Z,76.34
2022-09-23T09:10:21.294Z,76.54
2022-09-23T09:12:48.988Z,76.45
2022-09-23T09:15:27.689Z,75.98
2022-09-23T09:18:07.615Z,75.35
2022-09-23T09:20:59.377Z,74.28
2022-09-23T09:23:34.721Z,74.09
2022-09-23T09:26:03.602Z,73.24
2022-09-23T09:28:41.938Z,72.32
2022-09-23T09:31:26.966Z,71.36
2022-09-23T09:33:58.043Z,69.42
2022-09-23T09:36:32.295Z,68.35
2022-09-23T09:38:59.466Z,67.97
2022-09-23T09:41:28.459Z,67.83
2022-09-23T09:43:59.249Z,65.66
2022-09-23T09:46:25.723Z,66.13
2022-09-23T09:49:00.725Z,65.25
2022-09-23T09:51:29.353Z,64.69
2022-09-23T09:54:17.700Z,63.86
2022-09-23T09:56:44.914Z,62.71
2022-09-23T09:59:18.422Z,61.86
2022-09-23T10:01:46.150Z,61.76
2022-09-23T10:04:29.695Z,61.21
2022-09-23T10:07:13.286Z,59.45
2022-09-23T10:09:49.210Z,59.11
2022-09-23T10:12:21.348Z,58.96
2022-09-23T10:14:53.290Z,58.79
2022-09-23T10:17:32.333Z,58.33
2022-09-23T10:20:02.630Z,57.01
2022-09-23T10:22:36.419Z,56.54
2022-09-23T10:25:08.357Z,56.07
2022-09-23T10:27:36.495Z,55.19
2022-09-23T10:30:21.701Z,54.71
2022-09-23T10:32:49.955Z,54.46
2022-09-23T10:35:20.989Z,54.66
2022-09-23T10:37:54.141Z,54.16
2022-09-23T10:40:48.383Z,53.71
2022-09-23T10:43:39.810Z,52.36
2022-09-23T10:46:31.418Z,51.34
2022-09-23T10:49:26.134Z,51.65
2022-09-23T10:52:11.546Z,50.01
2022-09-23T10:55:20.831Z,49.42
2022-09-23T10:58:04.335Z,50.91
2022-09-23T11:00:51.922Z,50.71
2022-09-23T11:03:24.909Z,49.62
2022-09-23T11:06:01.547Z,48.59
2022-09-23T11:08:51.698Z,47.48
2022-09-23T11:11:28.302Z,46.00
2022-09-23T11:14:06.422Z,45.01
2022-09-23T11:16:51.581Z,43.75
2022-09-23T11:19:57.857Z,42.41
2022-09-23T11:22:55.608Z,40.98
2022-09-23T11:25:50.588Z,39.11
2022-09-23T11:28:27.271Z,39.11
2022-09-23T11:31:10.130Z,37.26
2022-09-23T11:34:01.784Z,36.74
2022-09-23T11:36:37.769Z,35.02
2022-09-23T11:39:15.262Z,34.43
2022-09-23T11:41:43.896Z,35.13
2022-09-23T11:44:22.518Z,38.88
2022-09-23T11:47:08.053Z,41.53
2022-09-23T11:49:39.457Z,42.97
2022-09-23T11:52:33.907Z,38.07
2022-09-23T11:55:21.565Z,34.09
2022-09-23T11:57:53.653Z,32.85
2022-09-23T12:00:26.685Z,33.74
2022-09-23T12:03:06.972Z,32.56
2022-09-23T12:05:41.697Z,32.48
2022-09-23T12:08:25.649Z,34.21
2022-09-23T12:11:17.080Z,37.80
2022-09-23T12:13:56.167Z,44.23
2022-09-23T12:16:54.635Z,37.52
2022-09-23T12:20:02.777Z,34.22
2022-09-23T12:22:39.619Z,32.80
2022-09-23T12:25:15.344Z,37.11
2022-09-23T12:27:49.809Z,33.93
2022-09-23T12:30:23.094Z,32.23
2022-09-23T12:32:49.969Z,31.61
2022-09-23T12:35:32.063Z,31.06
2022-09-23T12:38:01.402Z,31.23
2022-09-23T12:40:36.974Z,34.25
2022-09-23T12:43:03.586Z,37.26
2022-09-23T12:45:34.468Z,38.55
2022-09-23T12:48:24.991Z,35.78
2022-09-23T12:51:12.515Z,33.39
2022-09-23T12:53:47.937Z,31.09
2022-09-23T12:56:18.241Z,30.97
2022-09-23T12:58:44.785Z,32.43
2022-09-23T13:01:14.398Z,35.03
2022-09-23T13:04:08.918Z,37.60
2022-09-23T13:06:42.708Z,39.10
2022-09-23T13:09:25.803Z,37.04
2022-09-23T13:11:56.111Z,34.18
2022-09-23T13:14:27.568Z,32.29
2022-09-23T13:16:58.420Z,31.17
2022-09-23T13:19:27.863Z,30.68
2022-09-23T13:21:54.309Z,30.89
2022-09-23T13:24:35.058Z,31.00
2022-09-23T13:27:19.643Z,30.71
2022-09-23T13:30:25.047Z,31.32
2022-09-23T13:33:21.400Z,34.94
2022-09-23T13:35:55.561Z,34.57
2022-09-23T13:38:28.124Z,32.99
2022-09-23T13:40:58.756Z,32.14
2022-09-23T13:43:31.838Z,30.67
2022-09-23T13:46:00.772Z,30.51
2022-09-23T13:48:28.765Z,30.82
2022-09-23T13:50:56.086Z,30.78
2022-09-23T13:53:28.397Z,31.33
2022-09-23T13:56:06.761Z,33.17
2022-09-23T13:58:34.954Z,32.04
2022-09-23T14:01:03.488Z,30.70
2022-09-23T14:03:38.231Z,29.83
2022-09-23T14:06:10.925Z,29.43
2022-09-23T14:08:43.880Z,29.46
2022-09-23T14:11:16.374Z,30.37
2022-09-23T14:13:44.962Z,31.69
2022-09-23T14:16:18.087Z,32.02
2022-09-23T14:18:47.010Z,31.18
2022-09-23T14:21:37.034Z,31.26
2022-09-23T14:24:21.909Z,30.77
2022-09-23T14:27:04.066Z,30.96
2022-09-23T14:29:39.642Z,30.24
2022-09-23T14:32:13.831Z,32.40
2022-09-23T14:34:51.105Z,33.55
2022-09-23T14:37:42.586Z,33.56
2022-09-23T14:40:16.145Z,35.12
2022-09-23T14:42:54.245Z,33.42
2022-09-23T14:45:24.981Z,32.68
2022-09-23T14:47:58.600Z,31.92
2022-09-23T14:50:37.228Z,31.93
2022-09-23T14:53:05.523Z,32.18
2022-09-23T14:55:32.040Z,33.10
2022-09-23T14:58:04.712Z,32.57
2022-09-23T15:00:31.872Z,32.17
2022-09-23T15:03:02.883Z,32.68
2022-09-23T15:05:42.975Z,34.48
2022-09-23T15:08:13.543Z,33.11
2022-09-23T15:10:40.737Z,32.55
2022-09-23T15:13:12.447Z,30.89
2022-09-23T15:15:39.198Z,30.31
2022-09-23T15:18:22.295Z,30.03
2022-09-23T15:20:54.282Z,29.35
2022-09-23T15:23:45.159Z,28.83
2022-09-23T15:26:14.070Z,28.89
2022-09-23T15:28:40.880Z,28.62
2022-09-23T15:31:09.221Z,28.97
2022-09-23T15:33:36.109Z,29.20
2022-09-23T15:36:03.261Z,29.89
2022-09-23T15:38:29.914Z,30.27
2022-09-23T15:40:56.560Z,30.92
2022-09-23T15:43:26.547Z,31.40
2022-09-23T15:45:58.664Z,32.50
2022-09-23T15:48:29.266Z,33.45
2022-09-23T15:50:55.833Z,33.57
2022-09-23T15:53:26.158Z,34.48
2022-09-23T15:55:53.289Z,35.48
2022-09-23T15:58:20.926Z,37.05
2022-09-23T16:00:55.881Z,38.85
2022-09-23T16:03:28.982Z,39.70
2022-09-23T16:06:00.198Z,40.22
2022-09-23T16:08:27.659Z,41.39
2022-09-23T16:10:55.148Z,42.09
2022-09-23T16:13:22.125Z,43.00
2022-09-23T16:15:48.687Z,43.18
2022-09-23T16:18:15.155Z,43.58
2022-09-23T16:20:46.330Z,43.07
2022-09-23T16:23:34.316Z,43.92
2022-09-23T16:26:07.780Z,43.98
2022-09-23T16:28:34.514Z,44.80
2022-09-23T16:31:01.047Z,43.98
2022-09-23T16:33:27.891Z,43.85
2022-09-23T16:35:55.139Z,44.31
2022-09-23T16:38:21.610Z,43.71
2022-09-23T16:40:48.204Z,43.76
2022-09-23T16:43:14.803Z,44.76
2022-09-23T16:45:41.346Z,44.82
2022-09-23T16:48:07.890Z,45.00
2022-09-23T16:50:34.415Z,45.15
2022-09-23T16:53:00.931Z,45.59
2022-09-23T16:55:27.582Z,46.02
2022-09-23T16:57:55.119Z,47.53
2022-09-23T17:00:41.490Z,47.80
2022-09-23T17:03:28.574Z,48.92
2022-09-23T17:05:55.093Z,48.50
2022-09-23T17:08:21.766Z,48.84
2022-09-23T17:10:57.100Z,49.95
2022-09-23T17:13:25.392Z,49.38
2022-09-23T17:15:52.763Z,48.37
2022-09-23T17:18:20.769Z,48.40
2022-09-23T17:21:16.733Z,47.93
2022-09-23T17:23:43.265Z,47.58
2022-09-23T17:26:09.910Z,47.64
2022-09-23T17:28:36.482Z,48.03
2022-09-23T17:31:05.415Z,48.06
2022-09-23T17:33:33.015Z,47.62
2022-09-23T17:36:02.377Z,47.91
2022-09-23T17:38:29.679Z,47.51
2022-09-23T17:40:59.146Z,47.46
2022-09-23T17:43:25.910Z,47.85
2022-09-23T17:45:54.497Z,47.85
2022-09-23T17:48:22.443Z,47.51
2022-09-23T17:51:25.644Z,48.02
2022-09-23T17:53:52.273Z,47.90
2022-09-23T17:56:22.938Z,48.59
2022-09-23T17:58:50.140Z,48.79
2022-09-23T18:01:19.644Z,48.93
2022-09-23T18:03:46.381Z,49.47
2022-09-23T18:06:21.170Z,49.37
2022-09-23T18:08:49.209Z,49.77
2022-09-23T18:11:24.961Z,50.19
2022-09-23T18:13:57.023Z,50.41
2022-09-23T18:16:26.296Z,50.61
2022-09-23T18:18:54.990Z,51.06
2022-09-23T18:21:23.790Z,51.17
2022-09-23T18:23:50.724Z,51.30
2022-09-23T18:26:22.762Z,51.61
2022-09-23T18:28:52.804Z,52.17
2022-09-23T18:31:20.334Z,52.58
2022-09-23T18:33:54.235Z,52.62
2022-09-23T18:36:23.128Z,52.93
2022-09-23T18:38:50.631Z,53.08
2022-09-23T18:41:17.847Z,53.77
2022-09-23T18:43:48.297Z,53.67
2022-09-23T18:46:21.054Z,53.93
2022-09-23T18:49:06.745Z,54.28
2022-09-23T18:51:35.168Z,54.33
2022-09-23T18:54:04.147Z,54.84
2022-09-23T18:56:37.365Z,55.10
2022-09-23T18:59:06.285Z,55.04
2022-09-23T19:01:33.565Z,55.24
2022-09-23T19:04:05.018Z,55.54
2022-09-23T19:06:32.665Z,55.59
2022-09-23T19:08:59.233Z,55.90
2022-09-23T19:11:26.247Z,56.10
2022-09-23T19:13:58.291Z,56.40
2022-09-23T19:16:25.758Z,56.37
2022-09-23T19:18:52.937Z,56.60
2022-09-23T19:21:22.070Z,57.04
2022-09-23T19:23:54.101Z,56.99
2022-09-23T19:26:26.744Z,57.24
2022-09-23T19:28:57.302Z,57.48
2022-09-23T19:31:26.851Z,57.42
2022-09-23T19:33:58.189Z,57.81
2022-09-23T19:36:33.411Z,57.74
2022-09-23T19:39:06.251Z,57.92
2022-09-23T19:41:33.507Z,57.68
2022-09-23T19:44:03.784Z,57.78
2022-09-23T19:46:32.443Z,57.69
2022-09-23T19:49:00.217Z,57.65
2022-09-23T19:51:27.383Z,57.71
2022-09-23T19:53:54.044Z,57.85
2022-09-23T19:56:20.542Z,57.90
2022-09-23T19:58:54.215Z,57.85
2022-09-23T20:01:21.931Z,57.90
2022-09-23T20:03:49.134Z,58.32
2022-09-23T20:06:17.475Z,58.45
2022-09-23T20:08:44.653Z,58.58
2022-09-23T20:11:16.657Z,59.20
2022-09-23T20:13:47.159Z,59.30
2022-09-23T20:16:19.490Z,59.38
2022-09-23T20:18:47.114Z,59.39
2022-09-23T20:21:15.201Z,59.65
2022-09-23T20:23:42.578Z,59.95
2022-09-23T20:26:28.964Z,59.82
2022-09-23T20:28:55.435Z,60.22
2022-09-23T20:31:23.793Z,60.18
2022-09-23T20:33:58.577Z,60.22
2022-09-23T20:36:26.674Z,60.56
2022-09-23T20:38:57.464Z,60.90
2022-09-23T20:41:24.030Z,61.24
2022-09-23T20:44:00.652Z,61.64
2022-09-23T20:46:28.637Z,61.75
2022-09-23T20:48:56.573Z,61.71
2022-09-23T20:51:24.778Z,62.09
2022-09-23T20:53:53.273Z,62.17
2022-09-23T20:56:21.390Z,62.36
2022-09-23T20:58:48.689Z,62.55
2022-09-23T21:01:15.979Z,62.79
2022-09-23T21:03:44.930Z,62.79
2022-09-23T21:06:14.235Z,62.93
2022-09-23T21:08:41.670Z,62.93
2022-09-23T21:11:11.266Z,63.19
2022-09-23T21:13:38.094Z,63.18
2022-09-23T21:16:09.974Z,63.17
2022-09-23T21:18:38.109Z,63.61
2022-09-23T21:21:06.305Z,63.79
2022-09-23T21:23:34.876Z,63.75
2022-09-23T21:26:01.487Z,63.75
2022-09-23T21:28:36.397Z,63.82
2022-09-23T21:31:08.228Z,64.20
2022-09-23T21:33:37.395Z,64.32
2022-09-23T21:36:06.355Z,64.26
2022-09-23T21:38:37.074Z,64.62
2022-09-23T21:41:07.199Z,64.47
2022-09-23T21:43:36.003Z,64.54
2022-09-23T21:46:14.409Z,64.69
2022-09-23T21:48:42.387Z,64.68
2022-09-23T21:51:12.959Z,64.82
2022-09-23T21:53:40.998Z,64.74
2022-09-23T21:56:18.093Z,64.81
2022-09-23T21:58:47.005Z,64.84
2022-09-23T22:01:18.186Z,64.75
2022-09-23T22:03:49.774Z,64.76
2022-09-23T22:06:21.286Z,65.13
2022-09-23T22:08:54.107Z,65.09
2022-09-23T22:11:41.054Z,65.05
2022-09-23T22:14:10.767Z,65.16
2022-09-23T22:16:37.357Z,65.41
2022-09-23T22:19:07.523Z,65.37
2022-09-23T22:21:36.743Z,65.74
2022-09-23T22:24:04.850Z,65.89
2022-09-23T22:26:33.849Z,66.02
2022-09-23T22:29:18.992Z,65.79
2022-09-23T22:32:03.747Z,65.87
2022-09-23T22:34:49.053Z,66.26
2022-09-23T22:37:19.983Z,66.26
2022-09-23T22:39:46.600Z,66.38
2022-09-23T22:42:13.427Z,66.35
2022-09-23T22:44:39.950Z,66.61
2022-09-23T22:47:07.091Z,66.78
2022-09-23T22:49:33.726Z,67.14
2022-09-23T22:52:02.342Z,66.95
2022-09-23T22:54:33.364Z,67.22
2022-09-23T22:57:03.200Z,67.17
2022-09-23T22:59:30.091Z,67.46
2022-09-23T23:01:57.222Z,67.37
2022-09-23T23:04:23.807Z,67.45
2022-09-23T23:06:50.288Z,67.49
2022-09-23T23:09:18.474Z,67.26
2022-09-23T23:11:45.601Z,67.56
2022-09-23T23:14:14.437Z,67.44
2022-09-23T23:16:40.987Z,67.49
2022-09-23T23:19:14.151Z,67.28
2022-09-23T23:21:44.502Z,67.42
2022-09-23T23:24:16.420Z,67.21
2022-09-23T23:26:43.050Z,67.17
2022-09-23T23:29:11.771Z,67.17
2022-09-23T23:31:38.764Z,67.29
2022-09-23T23:34:07.162Z,67.42
2022-09-23T23:36:34.147Z,67.42
2022-09-23T23:39:00.644Z,67.43
2022-09-23T23:41:28.365Z,67.37
2022-09-23T23:43:58.195Z,67.42
2022-09-23T23:46:26.578Z,67.66
2022-09-23T23:48:54.169Z,67.58
2022-09-23T23:51:21.498Z,67.63
2022-09-23T23:53:48.309Z,67.59
2022-09-23T23:56:17.135Z,67.89
2022-09-23T23:58:44.462Z,67.96
